createdAt,value
2022-08-05T00:04:55.358Z,62.81
2022-08-05T00:10:00.192Z,62.88
2022-08-05T00:15:54.133Z,62.87
2022-08-05T00:20:30.248Z,62.79
2022-08-05T00:25:46.048Z,62.82
2022-08-05T00:30:52.148Z,63.10
2022-08-05T00:36:15.119Z,63.29
2022-08-05T00:41:52.232Z,63.47
2022-08-05T00:47:03.988Z,63.63
2022-08-05T00:52:09.883Z,63.67
2022-08-05T00:57:16.258Z,63.90
2022-08-05T01:02:28.281Z,64.04
2022-08-05T01:07:32.417Z,64.23
2022-08-05T01:12:38.589Z,64.35
2022-08-05T01:18:05.814Z,64.47
2022-08-05T01:23:34.835Z,64.83
2022-08-05T01:28:52.500Z,65.14
2022-08-05T01:34:13.819Z,65.63
2022-08-05T01:39:47.229Z,66.18
2022-08-05T01:44:54.369Z,66.69
2022-08-05T01:50:02.758Z,66.80
2022-08-05T01:55:13.866Z,66.89
2022-08-05T02:00:19.257Z,67.19
2022-08-05T02:05:31.145Z,67.45
2022-08-05T02:10:49.194Z,67.57
2022-08-05T02:16:22.084Z,67.89
2022-08-05T02:21:43.423Z,68.21
2022-08-05T02:26:58.958Z,68.40
2022-08-05T02:32:06.909Z,68.57
2022-08-05T02:37:14.778Z,68.76
2022-08-05T02:42:25.821Z,68.96
2022-08-05T02:48:06.427Z,69.16
2022-08-05T02:53:01.171Z,69.33
2022-08-05T02:58:20.224Z,69.44
2022-08-05T03:03:33.686Z,69.75
2022-08-05T03:08:43.760Z,69.83
2022-08-05T03:13:51.030Z,69.96
2022-08-05T03:19:12.681Z,70.10
2022-08-05T03:24:30.244Z,70.29
2022-08-05T03:29:45.136Z,70.47
2022-08-05T03:35:01.066Z,70.29
2022-08-05T03:40:11.881Z,70.19
2022-08-05T03:45:22.814Z,70.00
2022-08-05T03:50:49.436Z,69.89
2022-08-05T03:56:18.072Z,69.83
2022-08-05T04:01:35.721Z,69.64
2022-08-05T04:06:47.396Z,69.51
2022-08-05T04:11:52.894Z,69.53
2022-08-05T04:16:57.950Z,69.34
2022-08-05T04:22:08.823Z,69.17
2022-08-05T04:27:15.869Z,69.01
2022-08-05T04:32:31.292Z,68.70
2022-08-05T04:38:02.580Z,68.57
2022-08-05T04:43:05.451Z,68.25
2022-08-05T04:48:26.919Z,68.00
2022-08-05T04:53:35.341Z,67.60
2022-08-05T04:58:40.069Z,67.24
2022-08-05T05:03:45.329Z,66.99
2022-08-05T05:08:49.935Z,66.71
2022-08-05T05:13:55.262Z,66.54
2022-08-05T05:19:19.023Z,66.36
2022-08-05T05:24:56.209Z,66.04
2022-08-05T05:30:05.063Z,65.69
2022-08-05T05:35:10.249Z,65.43
2022-08-05T05:40:26.837Z,64.99
2022-08-05T05:45:32.291Z,64.62
2022-08-05T05:50:43.814Z,64.00
2022-08-05T05:55:52.451Z,63.03
2022-08-05T06:01:12.816Z,62.14
2022-08-05T06:06:19.556Z,61.60
2022-08-05T06:11:29.050Z,61.26
2022-08-05T06:16:37.177Z,59.92
2022-08-05T06:21:42.949Z,59.11
2022-08-05T06:26:54.202Z,58.33
2022-08-05T06:32:00.097Z,57.53
2022-08-05T06:37:04.534Z,56.60
2022-08-05T06:42:10.492Z,55.80
2022-08-05T06:48:11.545Z,55.22
2022-08-05T06:52:40.606Z,54.93
2022-08-05T06:57:57.900Z,54.24
2022-08-05T07:03:09.738Z,53.90
2022-08-05T07:08:14.577Z,52.83
2022-08-05T07:13:54.288Z,52.31
2022-08-05T07:19:02.755Z,51.86
2022-08-05T07:24:11.126Z,52.57
2022-08-05T07:29:16.248Z,51.31
2022-08-05T07:34:21.598Z,51.14
2022-08-05T07:40:04.306Z,49.78
2022-08-05T07:44:57.100Z,49.12
2022-08-05T07:50:06.616Z,48.86
2022-08-05T07:55:44.002Z,48.06
2022-08-05T08:00:36.839Z,47.99
2022-08-05T08:05:49.832Z,46.97
2022-08-05T08:10:56.371Z,46.44
2022-08-05T08:16:35.317Z,47.08
2022-08-05T08:21:25.101Z,45.28
2022-08-05T08:26:30.157Z,44.40
2022-08-05T08:31:34.612Z,43.65
2022-08-05T08:36:50.584Z,43.96
2022-08-05T08:42:02.529Z,43.53
2022-08-05T08:47:47.747Z,43.18
2022-08-05T08:52:37.955Z,43.37
2022-08-05T08:57:58.079Z,42.96
2022-08-05T09:03:07.284Z,42.99
2022-08-05T09:08:11.436Z,42.76
2022-08-05T09:13:16.767Z,42.53
2022-08-05T09:18:21.211Z,42.38
2022-08-05T09:23:27.232Z,40.72
2022-08-05T09:28:42.074Z,40.08
2022-08-05T09:34:00.194Z,40.13
2022-08-05T09:39:18.514Z,39.47
2022-08-05T09:44:49.319Z,39.64
2022-08-05T09:50:01.113Z,39.98
2022-08-05T09:55:58.579Z,38.33
2022-08-05T10:00:37.168Z,37.72
2022-08-05T10:05:42.423Z,38.10
2022-08-05T10:10:48.164Z,37.87
2022-08-05T10:15:54.578Z,37.65
2022-08-05T10:21:06.350Z,37.87
2022-08-05T10:26:16.014Z,37.60
2022-08-05T10:32:53.997Z,37.22
2022-08-05T10:36:46.524Z,37.56
2022-08-05T10:42:08.569Z,36.99
2022-08-05T10:47:26.585Z,36.93
2022-08-05T10:53:01.060Z,36.33
2022-08-05T10:58:15.647Z,37.06
2022-08-05T11:03:27.089Z,36.57
2022-08-05T11:08:37.386Z,36.05
2022-08-05T11:13:57.634Z,35.87
2022-08-05T11:20:11.183Z,36.37
2022-08-05T11:26:06.036Z,36.53
2022-08-05T11:30:58.729Z,35.27
2022-08-05T11:36:11.514Z,35.75
2022-08-05T11:41:58.120Z,34.81
2022-08-05T11:47:09.403Z,35.04
2022-08-05T11:52:29.477Z,34.71
2022-08-05T11:58:08.679Z,35.09
2022-08-05T12:02:59.433Z,35.19
2022-08-05T12:08:09.693Z,34.39
2022-08-05T12:13:27.876Z,34.67
2022-08-05T12:18:42.648Z,34.15
2022-08-05T12:24:04.445Z,34.26
2022-08-05T12:29:26.995Z,34.35
2022-08-05T12:34:37.601Z,33.89
2022-08-05T12:39:42.228Z,34.17
2022-08-05T12:44:47.966Z,34.71
2022-08-05T12:50:03.253Z,34.31
2022-08-05T12:55:25.413Z,34.63
2022-08-05T13:02:02.842Z,34.40
2022-08-05T13:05:59.824Z,35.47
2022-08-05T13:11:05.171Z,35.08
2022-08-05T13:16:17.543Z,35.37
2022-08-05T13:21:22.453Z,35.05
2022-08-05T13:26:32.525Z,35.67
2022-08-05T13:32:03.979Z,35.97
2022-08-05T13:37:01.141Z,35.24
2022-08-05T13:42:05.944Z,35.10
2022-08-05T13:47:10.448Z,35.15
2022-08-05T13:52:35.875Z,35.69
2022-08-05T13:57:50.810Z,36.03
2022-08-05T14:02:58.428Z,36.39
2022-08-05T14:08:11.129Z,36.94
2022-08-05T14:13:26.377Z,37.29
2022-08-05T14:18:30.647Z,37.74
2022-08-05T14:23:37.176Z,38.13
2022-08-05T14:28:52.193Z,38.22
2022-08-05T14:33:59.784Z,37.76
2022-08-05T14:39:06.725Z,37.74
2022-08-05T14:44:21.965Z,37.46
2022-08-05T14:49:59.233Z,37.74
2022-08-05T14:54:53.512Z,36.94
2022-08-05T14:59:57.859Z,37.49
2022-08-05T15:05:08.584Z,37.97
2022-08-05T15:10:18.202Z,38.13
2022-08-05T15:15:54.536Z,36.81
2022-08-05T15:20:58.012Z,35.06
2022-08-05T15:26:12.571Z,35.39
2022-08-05T15:31:17.112Z,35.06
2022-08-05T15:36:25.670Z,34.54
2022-08-05T15:41:55.409Z,33.77
2022-08-05T15:47:00.713Z,33.17
2022-08-05T15:52:16.843Z,32.86
2022-08-05T15:57:34.796Z,33.39
2022-08-05T16:02:39.837Z,34.31
2022-08-05T16:07:46.437Z,35.05
2022-08-05T16:12:52.078Z,35.58
2022-08-05T16:17:57.661Z,35.81
2022-08-05T16:23:04.297Z,36.39
2022-08-05T16:28:14.165Z,36.79
2022-08-05T16:33:19.654Z,36.84
2022-08-05T16:38:28.040Z,37.33
2022-08-05T16:43:36.199Z,37.81
2022-08-05T16:48:41.441Z,38.15
2022-08-05T16:54:04.997Z,38.81
2022-08-05T16:59:15.693Z,39.42
2022-08-05T17:04:26.314Z,40.35
2022-08-05T17:09:57.688Z,41.15
2022-08-05T17:14:59.423Z,41.88
2022-08-05T17:20:09.752Z,42.72
2022-08-05T17:25:39.264Z,43.28
2022-08-05T17:30:50.706Z,43.69
2022-08-05T17:36:10.067Z,44.29
2022-08-05T17:42:18.393Z,44.96
2022-08-05T17:46:47.891Z,45.33
2022-08-05T17:51:53.979Z,45.58
2022-08-05T17:56:59.699Z,45.92
2022-08-05T18:02:04.152Z,46.31
2022-08-05T18:07:15.124Z,46.81
2022-08-05T18:12:22.238Z,47.31
2022-08-05T18:17:59.723Z,47.78
2022-08-05T18:22:54.494Z,48.15
2022-08-05T18:28:07.608Z,48.67
2022-08-05T18:33:14.463Z,49.02
2022-08-05T18:38:26.074Z,49.51
2022-08-05T18:43:38.365Z,50.00
2022-08-05T18:48:47.739Z,50.57
2022-08-05T18:53:58.837Z,51.27
2022-08-05T18:59:43.058Z,52.41
2022-08-05T19:04:32.643Z,53.65
2022-08-05T19:09:40.144Z,55.33
2022-08-05T19:15:00.821Z,57.15
2022-08-05T19:20:09.975Z,58.45
2022-08-05T19:25:29.662Z,59.03
2022-08-05T19:30:34.927Z,58.85
2022-08-05T19:35:55.965Z,58.73
2022-08-05T19:41:01.452Z,58.63
2022-08-05T19:46:06.000Z,58.68
2022-08-05T19:52:05.668Z,59.06
2022-08-05T19:56:50.619Z,59.47
2022-08-05T20:01:55.937Z,60.24
2022-08-05T20:07:00.816Z,61.04
2022-08-05T20:12:06.203Z,61.25
2022-08-05T20:17:12.540Z,61.81
2022-08-05T20:22:20.796Z,61.92
2022-08-05T20:27:41.762Z,62.08
2022-08-05T20:32:46.500Z,62.12
2022-08-05T20:38:06.147Z,62.24
2022-08-05T20:43:12.447Z,62.45
2022-08-05T20:48:17.316Z,63.03
2022-08-05T20:53:37.153Z,63.62
2022-08-05T20:58:45.444Z,63.65
2022-08-05T21:03:49.652Z,63.69
2022-08-05T21:08:55.126Z,64.22
2022-08-05T21:14:02.331Z,65.88
2022-08-05T21:19:06.483Z,67.50
2022-08-05T21:24:12.743Z,68.21
2022-08-05T21:29:17.302Z,68.48
2022-08-05T21:34:24.462Z,68.46
2022-08-05T21:39:28.681Z,67.93
2022-08-05T21:44:35.843Z,67.57
2022-08-05T21:49:58.654Z,66.63
2022-08-05T21:55:06.860Z,65.68
2022-08-05T22:00:13.267Z,65.12
2022-08-05T22:05:19.025Z,64.88
2022-08-05T22:10:34.588Z,65.46
2022-08-05T22:16:02.035Z,65.94
2022-08-05T22:21:18.887Z,66.55
2022-08-05T22:26:42.470Z,67.06
2022-08-05T22:31:55.261Z,67.62
2022-08-05T22:37:04.777Z,68.45
2022-08-05T22:42:15.445Z,69.13
2022-08-05T22:47:31.281Z,69.64
2022-08-05T22:52:36.147Z,70.61
2022-08-05T22:57:40.746Z,70.85
2022-08-05T23:02:47.000Z,71.06
2022-08-05T23:07:53.205Z,71.50
2022-08-05T23:12:57.633Z,72.74
2022-08-05T23:18:11.437Z,73.82
2022-08-05T23:23:16.065Z,74.58
2022-08-05T23:28:20.610Z,75.25
2022-08-05T23:34:06.214Z,75.36
2022-08-05T23:38:50.578Z,75.73
2022-08-05T23:44:05.297Z,76.19
2022-08-05T23:49:15.836Z,76.96
2022-08-05T23:54:25.820Z,77.47
